sensor_id;sensor_type;location;lat;lon;timestamp;P1;durP1;ratioP1;P2;durP2;ratioP2
23678;SDS011;12016;51.668;6.874;2022-11-15T00:05:08;13.18;;;10.18;;
23678;SDS011;12016;51.668;6.874;2022-11-15T00:11:29;11.80;;;9.55;;
23678;SDS011;12016;51.668;6.874;2022-11-15T00:17:50;12.02;;;10.73;;
23678;SDS011;12016;51.668;6.874;2022-11-15T00:24:10;13.73;;;11.25;;
23678;SDS011;12016;51.668;6.874;2022-11-15T00:30:31;12.73;;;10.57;;
23678;SDS011;12016;51.668;6.874;2022-11-15T00:36:52;13.13;;;11.20;;
23678;SDS011;12016;51.668;6.874;2022-11-15T00:43:12;12.53;;;10.67;;
23678;SDS011;12016;51.668;6.874;2022-11-15T00:49:32;12.20;;;10.75;;
23678;SDS011;12016;51.668;6.874;2022-11-15T00:55:53;14.13;;;10.50;;
23678;SDS011;12016;51.668;6.874;2022-11-15T01:02:13;13.18;;;10.65;;
23678;SDS011;12016;51.668;6.874;2022-11-15T01:08:33;12.40;;;10.55;;
23678;SDS011;12016;51.668;6.874;2022-11-15T01:14:54;11.67;;;10.20;;
23678;SDS011;12016;51.668;6.874;2022-11-15T01:21:15;12.55;;;10.40;;
23678;SDS011;12016;51.668;6.874;2022-11-15T01:27:37;11.90;;;10.10;;
23678;SDS011;12016;51.668;6.874;2022-11-15T01:33:58;11.52;;;9.77;;
23678;SDS011;12016;51.668;6.874;2022-11-15T01:40:18;11.23;;;9.70;;
23678;SDS011;12016;51.668;6.874;2022-11-15T01:46:39;14.55;;;10.85;;
23678;SDS011;12016;51.668;6.874;2022-11-15T01:53:05;12.73;;;10.23;;
23678;SDS011;12016;51.668;6.874;2022-11-15T01:59:25;11.23;;;9.25;;
23678;SDS011;12016;51.668;6.874;2022-11-15T02:05:46;11.90;;;9.40;;
23678;SDS011;12016;51.668;6.874;2022-11-15T02:12:07;11.50;;;10.30;;
23678;SDS011;12016;51.668;6.874;2022-11-15T02:18:37;11.70;;;9.75;;
23678;SDS011;12016;51.668;6.874;2022-11-15T02:31:55;11.02;;;9.27;;
23678;SDS011;12016;51.668;6.874;2022-11-15T02:45:27;11.23;;;8.60;;
23678;SDS011;12016;51.668;6.874;2022-11-15T02:51:50;9.35;;;8.00;;
23678;SDS011;12016;51.668;6.874;2022-11-15T03:04:57;9.85;;;7.53;;
23678;SDS011;12016;51.668;6.874;2022-11-15T03:11:23;9.82;;;7.82;;
23678;SDS011;12016;51.668;6.874;2022-11-15T03:24:12;8.38;;;6.75;;
23678;SDS011;12016;51.668;6.874;2022-11-15T03:30:37;7.35;;;6.28;;
23678;SDS011;12016;51.668;6.874;2022-11-15T03:37:00;7.93;;;6.68;;
23678;SDS011;12016;51.668;6.874;2022-11-15T03:49:56;8.45;;;7.05;;
23678;SDS011;12016;51.668;6.874;2022-11-15T03:56:21;9.00;;;6.20;;
23678;SDS011;12016;51.668;6.874;2022-11-15T04:02:41;8.70;;;6.37;;
23678;SDS011;12016;51.668;6.874;2022-11-15T04:09:02;8.98;;;6.85;;
23678;SDS011;12016;51.668;6.874;2022-11-15T04:15:23;10.23;;;6.90;;
23678;SDS011;12016;51.668;6.874;2022-11-15T04:21:43;8.73;;;6.43;;
23678;SDS011;12016;51.668;6.874;2022-11-15T04:28:22;8.63;;;6.68;;
23678;SDS011;12016;51.668;6.874;2022-11-15T04:34:43;7.50;;;6.60;;
23678;SDS011;12016;51.668;6.874;2022-11-15T04:41:04;7.93;;;5.78;;
23678;SDS011;12016;51.668;6.874;2022-11-15T04:47:24;8.43;;;5.85;;
23678;SDS011;12016;51.668;6.874;2022-11-15T04:53:45;7.28;;;5.90;;
23678;SDS011;12016;51.668;6.874;2022-11-15T05:00:06;7.00;;;5.50;;
23678;SDS011;12016;51.668;6.874;2022-11-15T05:06:29;6.63;;;5.88;;
23678;SDS011;12016;51.668;6.874;2022-11-15T05:12:50;8.23;;;5.45;;
23678;SDS011;12016;51.668;6.874;2022-11-15T05:19:11;7.03;;;5.20;;
23678;SDS011;12016;51.668;6.874;2022-11-15T05:25:31;7.77;;;5.97;;
23678;SDS011;12016;51.668;6.874;2022-11-15T05:31:52;6.65;;;5.53;;
23678;SDS011;12016;51.668;6.874;2022-11-15T05:38:12;7.90;;;6.00;;
23678;SDS011;12016;51.668;6.874;2022-11-15T05:44:33;7.50;;;6.13;;
23678;SDS011;12016;51.668;6.874;2022-11-15T05:50:56;7.10;;;6.35;;
23678;SDS011;12016;51.668;6.874;2022-11-15T05:57:17;7.22;;;6.53;;
23678;SDS011;12016;51.668;6.874;2022-11-15T06:03:40;6.00;;;5.20;;
23678;SDS011;12016;51.668;6.874;2022-11-15T06:10:00;6.25;;;5.22;;
23678;SDS011;12016;51.668;6.874;2022-11-15T06:16:20;6.93;;;5.23;;
23678;SDS011;12016;51.668;6.874;2022-11-15T06:22:40;6.00;;;5.07;;
23678;SDS011;12016;51.668;6.874;2022-11-15T06:29:02;5.33;;;4.77;;
23678;SDS011;12016;51.668;6.874;2022-11-15T06:35:23;5.68;;;4.72;;
23678;SDS011;12016;51.668;6.874;2022-11-15T06:41:44;7.20;;;5.43;;
23678;SDS011;12016;51.668;6.874;2022-11-15T06:48:04;6.33;;;5.50;;
23678;SDS011;12016;51.668;6.874;2022-11-15T06:54:25;7.35;;;5.85;;
23678;SDS011;12016;51.668;6.874;2022-11-15T07:00:45;5.60;;;4.80;;
23678;SDS011;12016;51.668;6.874;2022-11-15T07:07:06;7.23;;;5.23;;
23678;SDS011;12016;51.668;6.874;2022-11-15T07:13:27;5.82;;;5.18;;
23678;SDS011;12016;51.668;6.874;2022-11-15T07:19:49;5.78;;;4.93;;
23678;SDS011;12016;51.668;6.874;2022-11-15T07:26:09;6.28;;;4.93;;
23678;SDS011;12016;51.668;6.874;2022-11-15T07:32:30;5.22;;;4.72;;
23678;SDS011;12016;51.668;6.874;2022-11-15T07:38:50;5.00;;;4.50;;
23678;SDS011;12016;51.668;6.874;2022-11-15T07:45:11;6.70;;;4.47;;
23678;SDS011;12016;51.668;6.874;2022-11-15T07:51:31;4.50;;;4.00;;
23678;SDS011;12016;51.668;6.874;2022-11-15T07:57:52;4.37;;;3.63;;
23678;SDS011;12016;51.668;6.874;2022-11-15T08:04:12;4.85;;;4.00;;
23678;SDS011;12016;51.668;6.874;2022-11-15T08:10:33;4.30;;;3.50;;
23678;SDS011;12016;51.668;6.874;2022-11-15T08:16:57;4.10;;;3.10;;
23678;SDS011;12016;51.668;6.874;2022-11-15T08:23:17;3.33;;;3.03;;
23678;SDS011;12016;51.668;6.874;2022-11-15T08:29:37;3.07;;;2.77;;
23678;SDS011;12016;51.668;6.874;2022-11-15T08:35:59;3.17;;;2.60;;
23678;SDS011;12016;51.668;6.874;2022-11-15T08:42:20;3.10;;;2.58;;
23678;SDS011;12016;51.668;6.874;2022-11-15T08:48:41;5.43;;;2.60;;
23678;SDS011;12016;51.668;6.874;2022-11-15T08:55:01;3.97;;;2.50;;
23678;SDS011;12016;51.668;6.874;2022-11-15T09:01:22;4.83;;;2.40;;
23678;SDS011;12016;51.668;6.874;2022-11-15T09:07:43;3.28;;;2.30;;
23678;SDS011;12016;51.668;6.874;2022-11-15T09:14:03;2.53;;;1.97;;
23678;SDS011;12016;51.668;6.874;2022-11-15T09:20:24;2.60;;;2.00;;
23678;SDS011;12016;51.668;6.874;2022-11-15T09:26:44;2.83;;;2.13;;
23678;SDS011;12016;51.668;6.874;2022-11-15T09:33:08;2.47;;;2.28;;
23678;SDS011;12016;51.668;6.874;2022-11-15T09:39:30;4.75;;;3.30;;
23678;SDS011;12016;51.668;6.874;2022-11-15T09:46:01;5.25;;;3.60;;
23678;SDS011;12016;51.668;6.874;2022-11-15T09:53:00;4.65;;;2.90;;
23678;SDS011;12016;51.668;6.874;2022-11-15T10:05:24;3.53;;;2.38;;
23678;SDS011;12016;51.668;6.874;2022-11-15T10:11:28;2.25;;;1.83;;
23678;SDS011;12016;51.668;6.874;2022-11-15T10:24:00;2.90;;;1.75;;
23678;SDS011;12016;51.668;6.874;2022-11-15T10:30:03;2.75;;;1.90;;
23678;SDS011;12016;51.668;6.874;2022-11-15T10:42:27;2.25;;;2.03;;
23678;SDS011;12016;51.668;6.874;2022-11-15T10:48:30;2.83;;;1.90;;
23678;SDS011;12016;51.668;6.874;2022-11-15T10:54:42;2.33;;;1.70;;
23678;SDS011;12016;51.668;6.874;2022-11-15T11:01:20;2.20;;;1.60;;
23678;SDS011;12016;51.668;6.874;2022-11-15T11:07:28;2.77;;;1.40;;
23678;SDS011;12016;51.668;6.874;2022-11-15T11:32:55;2.25;;;1.50;;
23678;SDS011;12016;51.668;6.874;2022-11-15T11:52:13;2.33;;;1.40;;
23678;SDS011;12016;51.668;6.874;2022-11-15T11:58:21;2.37;;;1.03;;
23678;SDS011;12016;51.668;6.874;2022-11-15T12:04:30;1.38;;;0.90;;
23678;SDS011;12016;51.668;6.874;2022-11-15T12:10:40;5.20;;;0.90;;
23678;SDS011;12016;51.668;6.874;2022-11-15T12:16:49;3.15;;;0.90;;
23678;SDS011;12016;51.668;6.874;2022-11-15T12:29:03;0.82;;;0.82;;
23678;SDS011;12016;51.668;6.874;2022-11-15T12:35:24;2.47;;;1.02;;
23678;SDS011;12016;51.668;6.874;2022-11-15T12:41:39;1.92;;;0.90;;
23678;SDS011;12016;51.668;6.874;2022-11-15T12:47:41;2.97;;;1.02;;
23678;SDS011;12016;51.668;6.874;2022-11-15T12:53:43;1.60;;;1.05;;
23678;SDS011;12016;51.668;6.874;2022-11-15T12:59:49;1.98;;;1.00;;
23678;SDS011;12016;51.668;6.874;2022-11-15T13:05:57;1.17;;;0.93;;
23678;SDS011;12016;51.668;6.874;2022-11-15T13:12:06;1.42;;;1.15;;
23678;SDS011;12016;51.668;6.874;2022-11-15T13:30:32;2.67;;;0.93;;
23678;SDS011;12016;51.668;6.874;2022-11-15T13:36:34;1.88;;;1.00;;
23678;SDS011;12016;51.668;6.874;2022-11-15T13:42:36;2.40;;;1.00;;
23678;SDS011;12016;51.668;6.874;2022-11-15T13:48:40;2.47;;;1.35;;
23678;SDS011;12016;51.668;6.874;2022-11-15T14:00:59;3.53;;;1.40;;
23678;SDS011;12016;51.668;6.874;2022-11-15T14:07:03;4.28;;;1.10;;
23678;SDS011;12016;51.668;6.874;2022-11-15T14:13:10;1.40;;;1.02;;
23678;SDS011;12016;51.668;6.874;2022-11-15T14:25:33;1.48;;;1.00;;
23678;SDS011;12016;51.668;6.874;2022-11-15T14:31:36;2.38;;;1.30;;
23678;SDS011;12016;51.668;6.874;2022-11-15T14:37:41;3.75;;;1.38;;
23678;SDS011;12016;51.668;6.874;2022-11-15T14:43:43;1.50;;;0.93;;
23678;SDS011;12016;51.668;6.874;2022-11-15T14:49:45;2.83;;;1.23;;
23678;SDS011;12016;51.668;6.874;2022-11-15T14:55:47;1.23;;;1.13;;
23678;SDS011;12016;51.668;6.874;2022-11-15T15:01:49;1.75;;;1.20;;
23678;SDS011;12016;51.668;6.874;2022-11-15T15:07:51;2.20;;;1.17;;
23678;SDS011;12016;51.668;6.874;2022-11-15T15:13:54;2.67;;;1.30;;
23678;SDS011;12016;51.668;6.874;2022-11-15T15:19:58;3.88;;;1.55;;
23678;SDS011;12016;51.668;6.874;2022-11-15T15:26:00;4.93;;;3.42;;
23678;SDS011;12016;51.668;6.874;2022-11-15T15:32:02;3.25;;;1.50;;
23678;SDS011;12016;51.668;6.874;2022-11-15T15:38:04;3.30;;;1.60;;
23678;SDS011;12016;51.668;6.874;2022-11-15T15:44:06;3.10;;;1.50;;
23678;SDS011;12016;51.668;6.874;2022-11-15T15:56:27;3.38;;;2.20;;
23678;SDS011;12016;51.668;6.874;2022-11-15T16:02:30;3.95;;;2.22;;
23678;SDS011;12016;51.668;6.874;2022-11-15T16:08:33;2.60;;;2.05;;
23678;SDS011;12016;51.668;6.874;2022-11-15T16:14:43;2.30;;;2.10;;
23678;SDS011;12016;51.668;6.874;2022-11-15T16:20:46;2.80;;;2.50;;
23678;SDS011;12016;51.668;6.874;2022-11-15T16:26:50;2.83;;;2.13;;
23678;SDS011;12016;51.668;6.874;2022-11-15T16:32:53;4.55;;;2.60;;
23678;SDS011;12016;51.668;6.874;2022-11-15T16:38:55;5.57;;;2.47;;
23678;SDS011;12016;51.668;6.874;2022-11-15T16:44:57;5.05;;;2.55;;
23678;SDS011;12016;51.668;6.874;2022-11-15T16:50:59;3.83;;;2.25;;
23678;SDS011;12016;51.668;6.874;2022-11-15T16:57:01;2.75;;;2.53;;
23678;SDS011;12016;51.668;6.874;2022-11-15T17:03:03;3.30;;;2.22;;
23678;SDS011;12016;51.668;6.874;2022-11-15T17:09:05;3.00;;;2.63;;
23678;SDS011;12016;51.668;6.874;2022-11-15T17:15:12;4.13;;;2.90;;
23678;SDS011;12016;51.668;6.874;2022-11-15T17:21:16;4.07;;;2.60;;
23678;SDS011;12016;51.668;6.874;2022-11-15T17:27:20;3.10;;;2.30;;
23678;SDS011;12016;51.668;6.874;2022-11-15T17:33:22;3.88;;;2.30;;
23678;SDS011;12016;51.668;6.874;2022-11-15T17:39:24;3.20;;;2.53;;
23678;SDS011;12016;51.668;6.874;2022-11-15T17:45:26;3.20;;;2.25;;
23678;SDS011;12016;51.668;6.874;2022-11-15T17:51:28;2.67;;;2.38;;
23678;SDS011;12016;51.668;6.874;2022-11-15T17:57:30;3.92;;;2.17;;
23678;SDS011;12016;51.668;6.874;2022-11-15T18:03:32;2.78;;;2.28;;
23678;SDS011;12016;51.668;6.874;2022-11-15T18:09:35;2.33;;;2.10;;
23678;SDS011;12016;51.668;6.874;2022-11-15T18:15:38;3.33;;;2.33;;
23678;SDS011;12016;51.668;6.874;2022-11-15T18:21:40;3.22;;;2.35;;
23678;SDS011;12016;51.668;6.874;2022-11-15T18:28:16;6.65;;;4.57;;
23678;SDS011;12016;51.668;6.874;2022-11-15T18:34:18;4.03;;;2.75;;
23678;SDS011;12016;51.668;6.874;2022-11-15T18:40:20;3.45;;;2.65;;
23678;SDS011;12016;51.668;6.874;2022-11-15T18:46:22;4.75;;;2.45;;
23678;SDS011;12016;51.668;6.874;2022-11-15T18:52:25;3.45;;;2.70;;
23678;SDS011;12016;51.668;6.874;2022-11-15T18:58:34;2.95;;;2.30;;
23678;SDS011;12016;51.668;6.874;2022-11-15T19:04:39;3.53;;;2.20;;
23678;SDS011;12016;51.668;6.874;2022-11-15T19:10:41;3.65;;;2.40;;
23678;SDS011;12016;51.668;6.874;2022-11-15T19:16:43;2.85;;;2.38;;
23678;SDS011;12016;51.668;6.874;2022-11-15T19:22:50;2.40;;;2.20;;
23678;SDS011;12016;51.668;6.874;2022-11-15T19:28:56;5.10;;;2.42;;
23678;SDS011;12016;51.668;6.874;2022-11-15T19:34:59;5.32;;;3.80;;
23678;SDS011;12016;51.668;6.874;2022-11-15T19:41:01;3.75;;;2.55;;
23678;SDS011;12016;51.668;6.874;2022-11-15T19:47:04;2.55;;;2.28;;
23678;SDS011;12016;51.668;6.874;2022-11-15T19:53:09;3.03;;;2.50;;
23678;SDS011;12016;51.668;6.874;2022-11-15T19:59:11;3.50;;;2.80;;
23678;SDS011;12016;51.668;6.874;2022-11-15T20:05:13;2.97;;;2.75;;
23678;SDS011;12016;51.668;6.874;2022-11-15T20:11:18;4.85;;;2.90;;
23678;SDS011;12016;51.668;6.874;2022-11-15T20:17:21;3.60;;;2.95;;
23678;SDS011;12016;51.668;6.874;2022-11-15T20:23:23;3.85;;;3.00;;
23678;SDS011;12016;51.668;6.874;2022-11-15T20:29:25;3.40;;;3.10;;
23678;SDS011;12016;51.668;6.874;2022-11-15T20:35:27;3.83;;;3.08;;
23678;SDS011;12016;51.668;6.874;2022-11-15T20:41:30;4.28;;;3.35;;
23678;SDS011;12016;51.668;6.874;2022-11-15T20:47:32;4.55;;;3.40;;
23678;SDS011;12016;51.668;6.874;2022-11-15T20:53:34;4.93;;;3.60;;
23678;SDS011;12016;51.668;6.874;2022-11-15T20:59:36;4.00;;;3.60;;
23678;SDS011;12016;51.668;6.874;2022-11-15T21:05:38;4.07;;;3.60;;
23678;SDS011;12016;51.668;6.874;2022-11-15T21:11:42;4.13;;;3.72;;
23678;SDS011;12016;51.668;6.874;2022-11-15T21:18:02;4.03;;;3.63;;
23678;SDS011;12016;51.668;6.874;2022-11-15T21:24:05;3.85;;;3.47;;
23678;SDS011;12016;51.668;6.874;2022-11-15T21:30:07;4.22;;;3.75;;
23678;SDS011;12016;51.668;6.874;2022-11-15T21:36:10;3.70;;;3.40;;
23678;SDS011;12016;51.668;6.874;2022-11-15T21:42:12;5.20;;;3.83;;
23678;SDS011;12016;51.668;6.874;2022-11-15T21:48:14;4.25;;;3.85;;
23678;SDS011;12016;51.668;6.874;2022-11-15T21:54:16;4.13;;;3.60;;
23678;SDS011;12016;51.668;6.874;2022-11-15T22:00:18;4.97;;;3.72;;
23678;SDS011;12016;51.668;6.874;2022-11-15T22:06:39;5.10;;;3.80;;
23678;SDS011;12016;51.668;6.874;2022-11-15T22:12:41;4.25;;;3.53;;
23678;SDS011;12016;51.668;6.874;2022-11-15T22:18:42;4.10;;;3.70;;
23678;SDS011;12016;51.668;6.874;2022-11-15T22:24:44;4.55;;;3.95;;
23678;SDS011;12016;51.668;6.874;2022-11-15T22:30:47;5.38;;;3.97;;
23678;SDS011;12016;51.668;6.874;2022-11-15T22:36:51;4.68;;;3.70;;
23678;SDS011;12016;51.668;6.874;2022-11-15T22:43:13;3.90;;;3.50;;
23678;SDS011;12016;51.668;6.874;2022-11-15T22:49:16;4.80;;;3.90;;
23678;SDS011;12016;51.668;6.874;2022-11-15T22:55:18;6.15;;;3.88;;
23678;SDS011;12016;51.668;6.874;2022-11-15T23:01:20;4.72;;;4.05;;
23678;SDS011;12016;51.668;6.874;2022-11-15T23:07:23;5.57;;;4.05;;
23678;SDS011;12016;51.668;6.874;2022-11-15T23:13:25;4.53;;;3.92;;
23678;SDS011;12016;51.668;6.874;2022-11-15T23:19:28;4.18;;;3.60;;
23678;SDS011;12016;51.668;6.874;2022-11-15T23:25:30;4.00;;;3.60;;
23678;SDS011;12016;51.668;6.874;2022-11-15T23:31:32;5.38;;;3.70;;
23678;SDS011;12016;51.668;6.874;2022-11-15T23:38:01;4.82;;;3.60;;
23678;SDS011;12016;51.668;6.874;2022-11-15T23:44:03;4.30;;;3.85;;
23678;SDS011;12016;51.668;6.874;2022-11-15T23:50:06;3.63;;;3.33;;
23678;SDS011;12016;51.668;6.874;2022-11-15T23:56:09;3.83;;;3.38;;
